sensor_id;sensor_type;location;lat;lon;timestamp;temperature;humidity
36652;DHT22;53334;51.976;20.144;2024-03-02T00:00:59;26.40;49.40
36652;DHT22;53334;51.976;20.144;2024-03-02T00:03:33;26.40;49.50
36652;DHT22;53334;51.976;20.144;2024-03-02T00:06:07;26.40;49.40
36652;DHT22;53334;51.976;20.144;2024-03-02T00:08:40;26.40;49.40
36652;DHT22;53334;51.976;20.144;2024-03-02T00:11:14;26.40;49.40
36652;DHT22;53334;51.976;20.144;2024-03-02T00:13:48;26.40;49.30
36652;DHT22;53334;51.976;20.144;2024-03-02T00:16:22;26.40;49.00
36652;DHT22;53334;51.976;20.144;2024-03-02T00:18:56;26.40;49.20
36652;DHT22;53334;51.976;20.144;2024-03-02T00:21:30;26.40;49.10
36652;DHT22;53334;51.976;20.144;2024-03-02T00:24:12;26.40;49.00
36652;DHT22;53334;51.976;20.144;2024-03-02T00:26:51;26.40;48.80
36652;DHT22;53334;51.976;20.144;2024-03-02T00:29:25;26.40;48.80
36652;DHT22;53334;51.976;20.144;2024-03-02T00:31:58;26.40;48.70
36652;DHT22;53334;51.976;20.144;2024-03-02T00:34:32;26.40;48.70
36652;DHT22;53334;51.976;20.144;2024-03-02T00:37:06;26.40;48.60
36652;DHT22;53334;51.976;20.144;2024-03-02T00:39:39;26.40;48.60
36652;DHT22;53334;51.976;20.144;2024-03-02T00:42:14;26.40;48.60
36652;DHT22;53334;51.976;20.144;2024-03-02T00:44:47;26.40;48.60
36652;DHT22;53334;51.976;20.144;2024-03-02T00:47:20;26.40;48.60
36652;DHT22;53334;51.976;20.144;2024-03-02T00:49:54;26.40;48.60
36652;DHT22;53334;51.976;20.144;2024-03-02T00:52:27;26.40;48.60
36652;DHT22;53334;51.976;20.144;2024-03-02T00:55:00;26.40;48.60
36652;DHT22;53334;51.976;20.144;2024-03-02T00:58:01;26.40;48.60
36652;DHT22;53334;51.976;20.144;2024-03-02T01:00:34;26.40;48.50
36652;DHT22;53334;51.976;20.144;2024-03-02T01:03:07;26.40;48.50
36652;DHT22;53334;51.976;20.144;2024-03-02T01:05:42;26.40;48.50
36652;DHT22;53334;51.976;20.144;2024-03-02T01:08:15;26.40;48.50
36652;DHT22;53334;51.976;20.144;2024-03-02T01:10:49;26.40;49.10
36652;DHT22;53334;51.976;20.144;2024-03-02T01:13:23;26.40;48.80
36652;DHT22;53334;51.976;20.144;2024-03-02T01:15:57;26.40;48.60
36652;DHT22;53334;51.976;20.144;2024-03-02T01:18:30;26.40;48.50
36652;DHT22;53334;51.976;20.144;2024-03-02T01:21:04;26.40;48.30
36652;DHT22;53334;51.976;20.144;2024-03-02T01:23:37;26.40;48.10
36652;DHT22;53334;51.976;20.144;2024-03-02T01:26:10;26.40;48.00
36652;DHT22;53334;51.976;20.144;2024-03-02T01:28:45;26.40;47.90
36652;DHT22;53334;51.976;20.144;2024-03-02T01:31:18;26.40;47.90
36652;DHT22;53334;51.976;20.144;2024-03-02T01:33:51;26.40;47.70
36652;DHT22;53334;51.976;20.144;2024-03-02T01:36:24;26.40;47.70
36652;DHT22;53334;51.976;20.144;2024-03-02T01:38:58;26.40;47.60
36652;DHT22;53334;51.976;20.144;2024-03-02T01:41:31;26.40;47.50
36652;DHT22;53334;51.976;20.144;2024-03-02T01:44:05;26.40;47.40
36652;DHT22;53334;51.976;20.144;2024-03-02T01:46:39;26.40;47.40
36652;DHT22;53334;51.976;20.144;2024-03-02T01:49:12;26.40;47.40
36652;DHT22;53334;51.976;20.144;2024-03-02T01:51:45;26.40;47.30
36652;DHT22;53334;51.976;20.144;2024-03-02T01:54:18;26.40;47.20
36652;DHT22;53334;51.976;20.144;2024-03-02T01:56:52;26.40;47.10
36652;DHT22;53334;51.976;20.144;2024-03-02T01:59:27;26.40;47.10
36652;DHT22;53334;51.976;20.144;2024-03-02T02:02:00;26.40;47.60
36652;DHT22;53334;51.976;20.144;2024-03-02T02:04:34;26.40;47.00
36652;DHT22;53334;51.976;20.144;2024-03-02T02:07:07;26.40;46.90
36652;DHT22;53334;51.976;20.144;2024-03-02T02:09:41;26.40;46.80
36652;DHT22;53334;51.976;20.144;2024-03-02T02:12:14;26.40;46.90
36652;DHT22;53334;51.976;20.144;2024-03-02T02:14:49;26.40;47.10
36652;DHT22;53334;51.976;20.144;2024-03-02T02:17:23;26.40;47.60
36652;DHT22;53334;51.976;20.144;2024-03-02T02:19:56;26.40;47.80
36652;DHT22;53334;51.976;20.144;2024-03-02T02:22:31;26.40;48.60
36652;DHT22;53334;51.976;20.144;2024-03-02T02:25:05;26.40;48.20
36652;DHT22;53334;51.976;20.144;2024-03-02T02:27:39;26.40;48.40
36652;DHT22;53334;51.976;20.144;2024-03-02T02:30:13;26.40;48.60
36652;DHT22;53334;51.976;20.144;2024-03-02T02:32:46;26.40;48.70
36652;DHT22;53334;51.976;20.144;2024-03-02T02:35:20;26.40;48.90
36652;DHT22;53334;51.976;20.144;2024-03-02T02:37:55;26.40;48.90
36652;DHT22;53334;51.976;20.144;2024-03-02T02:40:30;26.40;49.10
36652;DHT22;53334;51.976;20.144;2024-03-02T02:43:04;26.40;49.10
36652;DHT22;53334;51.976;20.144;2024-03-02T02:45:39;26.40;49.10
36652;DHT22;53334;51.976;20.144;2024-03-02T02:48:12;26.40;49.10
36652;DHT22;53334;51.976;20.144;2024-03-02T02:50:45;26.40;49.00
36652;DHT22;53334;51.976;20.144;2024-03-02T02:53:20;26.40;49.00
36652;DHT22;53334;51.976;20.144;2024-03-02T02:55:53;26.40;49.00
36652;DHT22;53334;51.976;20.144;2024-03-02T02:58:26;26.40;49.10
36652;DHT22;53334;51.976;20.144;2024-03-02T03:00:59;26.40;49.10
36652;DHT22;53334;51.976;20.144;2024-03-02T03:03:33;26.40;49.00
36652;DHT22;53334;51.976;20.144;2024-03-02T03:06:06;26.40;49.00
36652;DHT22;53334;51.976;20.144;2024-03-02T03:08:40;26.40;49.10
36652;DHT22;53334;51.976;20.144;2024-03-02T03:11:14;26.40;49.10
36652;DHT22;53334;51.976;20.144;2024-03-02T03:13:47;26.40;49.10
36652;DHT22;53334;51.976;20.144;2024-03-02T03:16:20;26.40;49.10
36652;DHT22;53334;51.976;20.144;2024-03-02T03:18:54;26.40;49.10
36652;DHT22;53334;51.976;20.144;2024-03-02T03:21:27;26.40;49.20
36652;DHT22;53334;51.976;20.144;2024-03-02T03:24:02;26.40;49.20
36652;DHT22;53334;51.976;20.144;2024-03-02T03:26:35;26.40;49.20
36652;DHT22;53334;51.976;20.144;2024-03-02T03:29:09;26.40;49.20
36652;DHT22;53334;51.976;20.144;2024-03-02T03:31:42;26.40;49.30
36652;DHT22;53334;51.976;20.144;2024-03-02T03:34:15;26.40;49.30
36652;DHT22;53334;51.976;20.144;2024-03-02T03:36:48;26.40;49.30
36652;DHT22;53334;51.976;20.144;2024-03-02T03:39:23;26.40;49.20
36652;DHT22;53334;51.976;20.144;2024-03-02T03:41:56;26.40;49.20
36652;DHT22;53334;51.976;20.144;2024-03-02T03:44:29;26.40;49.20
36652;DHT22;53334;51.976;20.144;2024-03-02T03:47:03;26.40;49.30
36652;DHT22;53334;51.976;20.144;2024-03-02T03:49:36;26.40;49.20
36652;DHT22;53334;51.976;20.144;2024-03-02T03:52:09;26.40;49.30
36652;DHT22;53334;51.976;20.144;2024-03-02T03:54:44;26.40;49.30
36652;DHT22;53334;51.976;20.144;2024-03-02T03:57:17;26.40;49.30
36652;DHT22;53334;51.976;20.144;2024-03-02T03:59:50;26.30;49.30
36652;DHT22;53334;51.976;20.144;2024-03-02T04:02:23;26.40;49.50
36652;DHT22;53334;51.976;20.144;2024-03-02T04:04:57;26.40;49.60
36652;DHT22;53334;51.976;20.144;2024-03-02T04:07:30;26.40;49.60
36652;DHT22;53334;51.976;20.144;2024-03-02T04:10:06;26.30;49.50
36652;DHT22;53334;51.976;20.144;2024-03-02T04:12:40;26.40;49.60
36652;DHT22;53334;51.976;20.144;2024-03-02T04:15:14;26.40;49.50
36652;DHT22;53334;51.976;20.144;2024-03-02T04:17:47;26.40;49.50
36652;DHT22;53334;51.976;20.144;2024-03-02T04:20:20;26.40;49.60
36652;DHT22;53334;51.976;20.144;2024-03-02T04:22:53;26.40;49.60
36652;DHT22;53334;51.976;20.144;2024-03-02T04:25:28;26.40;49.70
36652;DHT22;53334;51.976;20.144;2024-03-02T04:28:01;26.40;49.60
36652;DHT22;53334;51.976;20.144;2024-03-02T04:30:34;26.30;50.10
36652;DHT22;53334;51.976;20.144;2024-03-02T04:33:08;26.40;49.60
36652;DHT22;53334;51.976;20.144;2024-03-02T04:35:42;26.40;49.60
36652;DHT22;53334;51.976;20.144;2024-03-02T04:38:15;26.40;49.60
36652;DHT22;53334;51.976;20.144;2024-03-02T04:40:50;26.40;49.50
36652;DHT22;53334;51.976;20.144;2024-03-02T04:43:23;26.40;49.50
36652;DHT22;53334;51.976;20.144;2024-03-02T04:45:56;26.40;49.50
36652;DHT22;53334;51.976;20.144;2024-03-02T04:48:29;26.40;49.50
36652;DHT22;53334;51.976;20.144;2024-03-02T04:51:03;26.40;49.40
36652;DHT22;53334;51.976;20.144;2024-03-02T04:53:36;26.40;49.40
36652;DHT22;53334;51.976;20.144;2024-03-02T04:56:11;26.30;49.40
36652;DHT22;53334;51.976;20.144;2024-03-02T04:59:11;26.40;49.40
36652;DHT22;53334;51.976;20.144;2024-03-02T05:01:45;26.40;49.40
36652;DHT22;53334;51.976;20.144;2024-03-02T05:04:19;26.30;49.30
36652;DHT22;53334;51.976;20.144;2024-03-02T05:06:52;26.40;49.40
36652;DHT22;53334;51.976;20.144;2024-03-02T05:09:28;26.40;49.40
36652;DHT22;53334;51.976;20.144;2024-03-02T05:12:02;26.40;49.40
36652;DHT22;53334;51.976;20.144;2024-03-02T05:14:49;26.30;49.30
36652;DHT22;53334;51.976;20.144;2024-03-02T05:17:22;26.30;49.20
36652;DHT22;53334;51.976;20.144;2024-03-02T05:19:55;26.40;49.30
36652;DHT22;53334;51.976;20.144;2024-03-02T05:22:29;26.40;49.30
36652;DHT22;53334;51.976;20.144;2024-03-02T05:25:03;26.40;49.30
36652;DHT22;53334;51.976;20.144;2024-03-02T05:27:38;26.40;49.20
36652;DHT22;53334;51.976;20.144;2024-03-02T05:30:11;26.40;49.20
36652;DHT22;53334;51.976;20.144;2024-03-02T05:32:45;26.40;49.20
36652;DHT22;53334;51.976;20.144;2024-03-02T05:35:18;26.40;49.20
36652;DHT22;53334;51.976;20.144;2024-03-02T05:37:52;26.40;49.20
36652;DHT22;53334;51.976;20.144;2024-03-02T05:40:25;26.40;49.10
36652;DHT22;53334;51.976;20.144;2024-03-02T05:42:59;26.40;49.10
36652;DHT22;53334;51.976;20.144;2024-03-02T05:45:32;26.40;49.00
36652;DHT22;53334;51.976;20.144;2024-03-02T05:48:07;26.30;48.90
36652;DHT22;53334;51.976;20.144;2024-03-02T05:50:41;26.40;49.00
36652;DHT22;53334;51.976;20.144;2024-03-02T05:53:14;26.30;48.90
36652;DHT22;53334;51.976;20.144;2024-03-02T05:55:48;26.40;48.90
36652;DHT22;53334;51.976;20.144;2024-03-02T05:58:26;26.40;48.90
36652;DHT22;53334;51.976;20.144;2024-03-02T06:01:09;26.40;48.80
36652;DHT22;53334;51.976;20.144;2024-03-02T06:03:43;26.40;48.80
36652;DHT22;53334;51.976;20.144;2024-03-02T06:06:16;26.40;48.70
36652;DHT22;53334;51.976;20.144;2024-03-02T06:08:49;26.40;48.80
36652;DHT22;53334;51.976;20.144;2024-03-02T06:11:23;26.30;48.60
36652;DHT22;53334;51.976;20.144;2024-03-02T06:13:57;26.40;48.70
36652;DHT22;53334;51.976;20.144;2024-03-02T06:16:31;26.40;48.70
36652;DHT22;53334;51.976;20.144;2024-03-02T06:19:04;26.40;48.70
36652;DHT22;53334;51.976;20.144;2024-03-02T06:21:38;26.40;48.80
36652;DHT22;53334;51.976;20.144;2024-03-02T06:24:12;26.40;48.70
36652;DHT22;53334;51.976;20.144;2024-03-02T06:26:45;26.40;48.80
36652;DHT22;53334;51.976;20.144;2024-03-02T06:29:20;26.40;48.70
36652;DHT22;53334;51.976;20.144;2024-03-02T06:31:53;26.40;48.80
36652;DHT22;53334;51.976;20.144;2024-03-02T06:34:26;26.30;48.60
36652;DHT22;53334;51.976;20.144;2024-03-02T06:37:00;26.30;48.70
36652;DHT22;53334;51.976;20.144;2024-03-02T06:39:33;26.30;49.20
36652;DHT22;53334;51.976;20.144;2024-03-02T06:42:08;26.40;48.70
36652;DHT22;53334;51.976;20.144;2024-03-02T06:44:43;26.40;48.60
36652;DHT22;53334;51.976;20.144;2024-03-02T06:47:16;26.40;48.60
36652;DHT22;53334;51.976;20.144;2024-03-02T06:49:49;26.40;48.60
36652;DHT22;53334;51.976;20.144;2024-03-02T06:52:22;26.40;48.60
36652;DHT22;53334;51.976;20.144;2024-03-02T06:54:56;26.30;49.10
36652;DHT22;53334;51.976;20.144;2024-03-02T06:57:29;26.40;48.60
36652;DHT22;53334;51.976;20.144;2024-03-02T07:00:05;26.40;48.60
36652;DHT22;53334;51.976;20.144;2024-03-02T07:02:41;26.40;48.60
36652;DHT22;53334;51.976;20.144;2024-03-02T07:05:14;26.40;48.60
36652;DHT22;53334;51.976;20.144;2024-03-02T07:07:47;26.30;48.50
36652;DHT22;53334;51.976;20.144;2024-03-02T07:10:21;26.40;48.60
36652;DHT22;53334;51.976;20.144;2024-03-02T07:12:54;26.40;49.20
36652;DHT22;53334;51.976;20.144;2024-03-02T07:15:28;26.40;49.60
36652;DHT22;53334;51.976;20.144;2024-03-02T07:18:16;26.40;49.50
36652;DHT22;53334;51.976;20.144;2024-03-02T07:20:49;26.40;49.30
36652;DHT22;53334;51.976;20.144;2024-03-02T07:23:22;26.30;48.70
36652;DHT22;53334;51.976;20.144;2024-03-02T07:25:59;26.30;48.40
36652;DHT22;53334;51.976;20.144;2024-03-02T07:28:36;26.30;48.30
36652;DHT22;53334;51.976;20.144;2024-03-02T07:31:11;26.30;48.10
36652;DHT22;53334;51.976;20.144;2024-03-02T07:33:45;26.30;47.90
36652;DHT22;53334;51.976;20.144;2024-03-02T07:36:19;26.30;47.70
36652;DHT22;53334;51.976;20.144;2024-03-02T07:38:52;26.30;47.50
36652;DHT22;53334;51.976;20.144;2024-03-02T07:41:26;26.20;47.30
36652;DHT22;53334;51.976;20.144;2024-03-02T07:43:59;26.30;47.20
36652;DHT22;53334;51.976;20.144;2024-03-02T07:46:34;26.30;47.20
36652;DHT22;53334;51.976;20.144;2024-03-02T07:49:08;26.30;47.40
36652;DHT22;53334;51.976;20.144;2024-03-02T07:51:41;26.30;47.60
36652;DHT22;53334;51.976;20.144;2024-03-02T07:54:14;26.30;47.80
36652;DHT22;53334;51.976;20.144;2024-03-02T07:56:48;26.30;47.90
36652;DHT22;53334;51.976;20.144;2024-03-02T07:59:21;26.30;48.20
36652;DHT22;53334;51.976;20.144;2024-03-02T08:01:56;26.30;48.20
36652;DHT22;53334;51.976;20.144;2024-03-02T08:04:30;26.40;48.70
36652;DHT22;53334;51.976;20.144;2024-03-02T08:07:03;26.40;49.00
36652;DHT22;53334;51.976;20.144;2024-03-02T08:09:37;26.40;49.40
36652;DHT22;53334;51.976;20.144;2024-03-02T08:12:10;26.40;49.00
36652;DHT22;53334;51.976;20.144;2024-03-02T08:14:43;26.40;48.90
36652;DHT22;53334;51.976;20.144;2024-03-02T08:17:18;26.30;48.80
36652;DHT22;53334;51.976;20.144;2024-03-02T08:19:51;26.40;48.90
36652;DHT22;53334;51.976;20.144;2024-03-02T08:22:25;26.40;49.10
36652;DHT22;53334;51.976;20.144;2024-03-02T08:24:58;26.40;49.40
36652;DHT22;53334;51.976;20.144;2024-03-02T08:27:32;26.40;49.80
36652;DHT22;53334;51.976;20.144;2024-03-02T08:30:06;26.40;49.90
36652;DHT22;53334;51.976;20.144;2024-03-02T08:32:42;26.40;49.90
36652;DHT22;53334;51.976;20.144;2024-03-02T08:35:17;26.40;50.30
36652;DHT22;53334;51.976;20.144;2024-03-02T08:37:50;26.40;50.20
36652;DHT22;53334;51.976;20.144;2024-03-02T08:40:23;26.40;50.20
36652;DHT22;53334;51.976;20.144;2024-03-02T08:42:56;26.40;50.10
36652;DHT22;53334;51.976;20.144;2024-03-02T08:45:30;26.40;50.50
36652;DHT22;53334;51.976;20.144;2024-03-02T08:48:06;26.40;49.70
36652;DHT22;53334;51.976;20.144;2024-03-02T08:50:40;26.40;49.50
36652;DHT22;53334;51.976;20.144;2024-03-02T08:53:13;26.40;49.20
36652;DHT22;53334;51.976;20.144;2024-03-02T08:55:50;26.40;42.30
36652;DHT22;53334;51.976;20.144;2024-03-02T08:58:23;26.30;39.80
36652;DHT22;53334;51.976;20.144;2024-03-02T09:00:56;26.20;38.30
36652;DHT22;53334;51.976;20.144;2024-03-02T09:03:31;26.00;38.90
36652;DHT22;53334;51.976;20.144;2024-03-02T09:06:05;26.00;40.10
36652;DHT22;53334;51.976;20.144;2024-03-02T09:08:39;25.90;40.90
36652;DHT22;53334;51.976;20.144;2024-03-02T09:11:12;25.90;41.30
36652;DHT22;53334;51.976;20.144;2024-03-02T09:13:45;25.90;41.70
36652;DHT22;53334;51.976;20.144;2024-03-02T09:16:18;25.90;41.30
36652;DHT22;53334;51.976;20.144;2024-03-02T09:18:53;25.90;42.10
36652;DHT22;53334;51.976;20.144;2024-03-02T09:21:26;26.00;42.80
36652;DHT22;53334;51.976;20.144;2024-03-02T09:24:02;26.00;43.50
36652;DHT22;53334;51.976;20.144;2024-03-02T09:26:35;26.00;44.40
36652;DHT22;53334;51.976;20.144;2024-03-02T09:29:08;26.00;44.50
36652;DHT22;53334;51.976;20.144;2024-03-02T09:31:43;26.10;44.60
36652;DHT22;53334;51.976;20.144;2024-03-02T09:34:17;26.10;46.00
36652;DHT22;53334;51.976;20.144;2024-03-02T09:36:51;26.10;46.90
36652;DHT22;53334;51.976;20.144;2024-03-02T09:39:24;26.10;47.00
36652;DHT22;53334;51.976;20.144;2024-03-02T09:41:59;26.10;46.90
36652;DHT22;53334;51.976;20.144;2024-03-02T09:44:34;26.10;47.40
36652;DHT22;53334;51.976;20.144;2024-03-02T09:47:07;26.10;47.60
36652;DHT22;53334;51.976;20.144;2024-03-02T09:49:42;26.10;47.60
36652;DHT22;53334;51.976;20.144;2024-03-02T09:52:16;26.10;47.90
36652;DHT22;53334;51.976;20.144;2024-03-02T09:54:50;26.10;47.90
36652;DHT22;53334;51.976;20.144;2024-03-02T09:57:24;26.10;48.60
36652;DHT22;53334;51.976;20.144;2024-03-02T10:00:00;26.10;49.10
36652;DHT22;53334;51.976;20.144;2024-03-02T10:02:35;26.10;49.00
36652;DHT22;53334;51.976;20.144;2024-03-02T10:05:11;26.10;49.10
36652;DHT22;53334;51.976;20.144;2024-03-02T10:08:03;26.10;48.70
36652;DHT22;53334;51.976;20.144;2024-03-02T10:10:37;26.10;49.20
36652;DHT22;53334;51.976;20.144;2024-03-02T10:13:13;26.10;48.50
36652;DHT22;53334;51.976;20.144;2024-03-02T10:15:46;26.10;48.10
36652;DHT22;53334;51.976;20.144;2024-03-02T10:18:26;26.10;48.10
36652;DHT22;53334;51.976;20.144;2024-03-02T10:21:13;26.10;47.20
36652;DHT22;53334;51.976;20.144;2024-03-02T10:23:46;26.10;47.30
36652;DHT22;53334;51.976;20.144;2024-03-02T10:26:20;26.10;46.90
36652;DHT22;53334;51.976;20.144;2024-03-02T10:28:53;26.10;46.90
36652;DHT22;53334;51.976;20.144;2024-03-02T10:31:32;26.10;47.10
36652;DHT22;53334;51.976;20.144;2024-03-02T10:34:06;26.10;46.70
36652;DHT22;53334;51.976;20.144;2024-03-02T10:36:42;26.10;46.60
36652;DHT22;53334;51.976;20.144;2024-03-02T10:39:15;26.10;46.50
36652;DHT22;53334;51.976;20.144;2024-03-02T10:41:52;26.10;46.30
36652;DHT22;53334;51.976;20.144;2024-03-02T10:44:26;26.10;46.10
36652;DHT22;53334;51.976;20.144;2024-03-02T10:47:00;26.10;45.90
36652;DHT22;53334;51.976;20.144;2024-03-02T10:49:36;26.10;45.90
36652;DHT22;53334;51.976;20.144;2024-03-02T10:52:12;26.10;45.90
36652;DHT22;53334;51.976;20.144;2024-03-02T10:54:45;26.10;45.70
36652;DHT22;53334;51.976;20.144;2024-03-02T10:57:21;26.10;45.70
36652;DHT22;53334;51.976;20.144;2024-03-02T10:59:57;26.00;45.60
36652;DHT22;53334;51.976;20.144;2024-03-02T11:02:34;26.00;45.90
36652;DHT22;53334;51.976;20.144;2024-03-02T11:05:11;26.00;47.10
36652;DHT22;53334;51.976;20.144;2024-03-02T11:07:46;26.00;46.90
36652;DHT22;53334;51.976;20.144;2024-03-02T11:10:20;26.10;46.90
36652;DHT22;53334;51.976;20.144;2024-03-02T11:12:59;26.10;46.90
36652;DHT22;53334;51.976;20.144;2024-03-02T11:15:35;26.10;47.10
36652;DHT22;53334;51.976;20.144;2024-03-02T11:18:10;26.10;47.10
36652;DHT22;53334;51.976;20.144;2024-03-02T11:20:44;26.10;47.20
36652;DHT22;53334;51.976;20.144;2024-03-02T11:23:31;26.10;47.20
36652;DHT22;53334;51.976;20.144;2024-03-02T11:26:17;26.10;47.10
36652;DHT22;53334;51.976;20.144;2024-03-02T11:28:51;26.10;47.10
36652;DHT22;53334;51.976;20.144;2024-03-02T11:34:30;26.10;46.90
36652;DHT22;53334;51.976;20.144;2024-03-02T11:37:04;26.10;46.80
36652;DHT22;53334;51.976;20.144;2024-03-02T11:39:40;26.10;46.30
36652;DHT22;53334;51.976;20.144;2024-03-02T11:42:15;26.10;46.10
36652;DHT22;53334;51.976;20.144;2024-03-02T11:44:48;26.10;46.40
36652;DHT22;53334;51.976;20.144;2024-03-02T11:47:22;26.10;46.20
36652;DHT22;53334;51.976;20.144;2024-03-02T11:49:55;26.10;46.00
36652;DHT22;53334;51.976;20.144;2024-03-02T11:52:28;26.10;45.80
36652;DHT22;53334;51.976;20.144;2024-03-02T11:55:05;26.10;45.70
36652;DHT22;53334;51.976;20.144;2024-03-02T11:57:41;26.10;45.60
36652;DHT22;53334;51.976;20.144;2024-03-02T12:00:16;26.10;45.40
36652;DHT22;53334;51.976;20.144;2024-03-02T12:03:01;26.10;45.30
36652;DHT22;53334;51.976;20.144;2024-03-02T12:05:35;26.10;45.50
36652;DHT22;53334;51.976;20.144;2024-03-02T12:08:09;26.10;45.50
36652;DHT22;53334;51.976;20.144;2024-03-02T12:10:56;26.10;45.20
36652;DHT22;53334;51.976;20.144;2024-03-02T12:13:29;26.10;45.00
36652;DHT22;53334;51.976;20.144;2024-03-02T12:16:03;26.10;45.00
36652;DHT22;53334;51.976;20.144;2024-03-02T12:18:37;26.10;44.80
36652;DHT22;53334;51.976;20.144;2024-03-02T12:21:10;26.10;44.70
36652;DHT22;53334;51.976;20.144;2024-03-02T12:23:44;26.00;44.60
36652;DHT22;53334;51.976;20.144;2024-03-02T12:26:18;26.00;44.60
36652;DHT22;53334;51.976;20.144;2024-03-02T12:28:51;26.00;44.60
36652;DHT22;53334;51.976;20.144;2024-03-02T12:31:26;26.00;44.40
36652;DHT22;53334;51.976;20.144;2024-03-02T12:33:59;26.00;44.20
36652;DHT22;53334;51.976;20.144;2024-03-02T12:36:37;26.10;44.40
36652;DHT22;53334;51.976;20.144;2024-03-02T12:39:11;26.00;43.90
36652;DHT22;53334;51.976;20.144;2024-03-02T12:41:46;26.10;44.30
36652;DHT22;53334;51.976;20.144;2024-03-02T12:44:22;26.00;44.40
36652;DHT22;53334;51.976;20.144;2024-03-02T12:46:55;26.10;44.40
36652;DHT22;53334;51.976;20.144;2024-03-02T12:49:32;26.10;44.20
36652;DHT22;53334;51.976;20.144;2024-03-02T12:52:05;26.10;44.00
36652;DHT22;53334;51.976;20.144;2024-03-02T12:54:39;26.10;44.10
36652;DHT22;53334;51.976;20.144;2024-03-02T12:57:18;26.10;44.00
36652;DHT22;53334;51.976;20.144;2024-03-02T12:59:51;26.10;43.90
36652;DHT22;53334;51.976;20.144;2024-03-02T13:02:27;26.10;44.10
36652;DHT22;53334;51.976;20.144;2024-03-02T13:05:01;26.10;43.70
36652;DHT22;53334;51.976;20.144;2024-03-02T13:07:34;26.10;44.30
36652;DHT22;53334;51.976;20.144;2024-03-02T13:10:08;26.10;43.60
36652;DHT22;53334;51.976;20.144;2024-03-02T13:12:42;26.10;43.60
36652;DHT22;53334;51.976;20.144;2024-03-02T13:15:16;26.10;43.60
36652;DHT22;53334;51.976;20.144;2024-03-02T13:17:49;26.10;43.80
36652;DHT22;53334;51.976;20.144;2024-03-02T13:20:22;26.00;43.90
36652;DHT22;53334;51.976;20.144;2024-03-02T13:22:58;26.10;44.00
36652;DHT22;53334;51.976;20.144;2024-03-02T13:25:31;26.10;44.00
36652;DHT22;53334;51.976;20.144;2024-03-02T13:28:06;26.10;44.00
36652;DHT22;53334;51.976;20.144;2024-03-02T13:30:39;26.10;44.30
36652;DHT22;53334;51.976;20.144;2024-03-02T13:33:13;26.10;43.60
36652;DHT22;53334;51.976;20.144;2024-03-02T13:35:47;26.10;43.50
36652;DHT22;53334;51.976;20.144;2024-03-02T13:38:21;26.10;43.40
36652;DHT22;53334;51.976;20.144;2024-03-02T13:40:54;26.10;43.50
36652;DHT22;53334;51.976;20.144;2024-03-02T13:43:29;26.10;43.30
36652;DHT22;53334;51.976;20.144;2024-03-02T13:46:04;26.10;43.30
36652;DHT22;53334;51.976;20.144;2024-03-02T13:48:37;26.10;43.20
36652;DHT22;53334;51.976;20.144;2024-03-02T13:51:10;26.10;43.00
36652;DHT22;53334;51.976;20.144;2024-03-02T13:53:43;26.10;42.80
36652;DHT22;53334;51.976;20.144;2024-03-02T13:56:17;26.10;42.80
36652;DHT22;53334;51.976;20.144;2024-03-02T13:58:51;26.10;42.80
36652;DHT22;53334;51.976;20.144;2024-03-02T14:01:25;26.10;42.80
36652;DHT22;53334;51.976;20.144;2024-03-02T14:03:58;26.10;43.00
36652;DHT22;53334;51.976;20.144;2024-03-02T14:06:31;26.10;42.80
36652;DHT22;53334;51.976;20.144;2024-03-02T14:09:05;26.10;42.60
36652;DHT22;53334;51.976;20.144;2024-03-02T14:11:38;26.10;42.50
36652;DHT22;53334;51.976;20.144;2024-03-02T14:14:12;26.10;42.40
36652;DHT22;53334;51.976;20.144;2024-03-02T14:16:46;26.10;42.40
36652;DHT22;53334;51.976;20.144;2024-03-02T14:19:19;26.10;42.30
36652;DHT22;53334;51.976;20.144;2024-03-02T14:21:53;26.10;42.40
36652;DHT22;53334;51.976;20.144;2024-03-02T14:24:26;26.10;43.00
36652;DHT22;53334;51.976;20.144;2024-03-02T14:27:01;26.10;42.60
36652;DHT22;53334;51.976;20.144;2024-03-02T14:29:57;26.10;42.40
36652;DHT22;53334;51.976;20.144;2024-03-02T14:32:30;26.10;42.50
36652;DHT22;53334;51.976;20.144;2024-03-02T14:35:04;26.10;42.50
36652;DHT22;53334;51.976;20.144;2024-03-02T14:37:37;26.10;42.00
36652;DHT22;53334;51.976;20.144;2024-03-02T14:40:12;26.00;42.00
36652;DHT22;53334;51.976;20.144;2024-03-02T14:42:45;26.00;42.10
36652;DHT22;53334;51.976;20.144;2024-03-02T14:45:21;26.00;42.10
36652;DHT22;53334;51.976;20.144;2024-03-02T14:47:56;26.00;42.20
36652;DHT22;53334;51.976;20.144;2024-03-02T14:50:31;26.00;42.10
36652;DHT22;53334;51.976;20.144;2024-03-02T14:53:05;26.00;42.20
36652;DHT22;53334;51.976;20.144;2024-03-02T14:55:39;26.00;42.20
36652;DHT22;53334;51.976;20.144;2024-03-02T14:58:12;26.00;42.70
36652;DHT22;53334;51.976;20.144;2024-03-02T15:00:46;26.00;42.20
36652;DHT22;53334;51.976;20.144;2024-03-02T15:03:20;26.00;43.00
36652;DHT22;53334;51.976;20.144;2024-03-02T15:05:53;26.00;42.30
36652;DHT22;53334;51.976;20.144;2024-03-02T15:08:26;26.00;42.50
36652;DHT22;53334;51.976;20.144;2024-03-02T15:10:59;26.00;42.50
36652;DHT22;53334;51.976;20.144;2024-03-02T15:13:33;26.00;42.40
36652;DHT22;53334;51.976;20.144;2024-03-02T15:16:08;26.00;42.40
36652;DHT22;53334;51.976;20.144;2024-03-02T15:18:41;26.00;42.30
36652;DHT22;53334;51.976;20.144;2024-03-02T15:21:15;26.00;42.20
36652;DHT22;53334;51.976;20.144;2024-03-02T15:23:53;26.00;42.30
36652;DHT22;53334;51.976;20.144;2024-03-02T15:26:27;26.00;42.20
36652;DHT22;53334;51.976;20.144;2024-03-02T15:29:00;26.00;42.10
36652;DHT22;53334;51.976;20.144;2024-03-02T15:31:35;26.00;42.20
36652;DHT22;53334;51.976;20.144;2024-03-02T15:34:08;26.00;42.30
36652;DHT22;53334;51.976;20.144;2024-03-02T15:36:43;26.00;42.10
36652;DHT22;53334;51.976;20.144;2024-03-02T15:39:16;25.90;41.90
36652;DHT22;53334;51.976;20.144;2024-03-02T15:41:50;25.90;42.00
36652;DHT22;53334;51.976;20.144;2024-03-02T15:44:23;25.90;42.50
36652;DHT22;53334;51.976;20.144;2024-03-02T15:46:58;25.90;42.40
36652;DHT22;53334;51.976;20.144;2024-03-02T15:49:31;25.90;42.50
36652;DHT22;53334;51.976;20.144;2024-03-02T15:52:04;25.90;42.50
36652;DHT22;53334;51.976;20.144;2024-03-02T15:54:38;25.90;42.60
36652;DHT22;53334;51.976;20.144;2024-03-02T15:57:11;25.90;42.70
36652;DHT22;53334;51.976;20.144;2024-03-02T15:59:45;25.90;43.00
36652;DHT22;53334;51.976;20.144;2024-03-02T16:02:20;25.90;42.80